sensor_id;sensor_type;location;lat;lon;timestamp;P1;durP1;ratioP1;P2;durP2;ratioP2
19080;SDS011;9673;50.868;3.152;2022-09-09T00:01:57;11.07;;;2.13;;
19080;SDS011;9673;50.868;3.152;2022-09-09T00:05:12;5.67;;;2.03;;
19080;SDS011;9673;50.868;3.152;2022-09-09T00:08:29;4.90;;;2.20;;
19080;SDS011;9673;50.868;3.152;2022-09-09T00:11:48;10.43;;;2.77;;
19080;SDS011;9673;50.868;3.152;2022-09-09T00:15:02;5.43;;;2.17;;
19080;SDS011;9673;50.868;3.152;2022-09-09T00:18:20;8.50;;;2.73;;
19080;SDS011;9673;50.868;3.152;2022-09-09T00:21:35;8.33;;;2.10;;
19080;SDS011;9673;50.868;3.152;2022-09-09T00:24:44;7.47;;;1.90;;
19080;SDS011;9673;50.868;3.152;2022-09-09T00:27:52;7.30;;;2.30;;
19080;SDS011;9673;50.868;3.152;2022-09-09T00:30:59;6.50;;;2.00;;
19080;SDS011;9673;50.868;3.152;2022-09-09T00:34:19;4.93;;;1.70;;
19080;SDS011;9673;50.868;3.152;2022-09-09T00:37:28;10.40;;;2.20;;
19080;SDS011;9673;50.868;3.152;2022-09-09T00:40:41;9.03;;;2.37;;
19080;SDS011;9673;50.868;3.152;2022-09-09T00:43:57;12.50;;;2.60;;
19080;SDS011;9673;50.868;3.152;2022-09-09T00:47:22;8.20;;;2.07;;
19080;SDS011;9673;50.868;3.152;2022-09-09T00:50:49;15.33;;;2.90;;
19080;SDS011;9673;50.868;3.152;2022-09-09T00:54:07;7.60;;;2.30;;
19080;SDS011;9673;50.868;3.152;2022-09-09T00:57:31;10.70;;;2.77;;
19080;SDS011;9673;50.868;3.152;2022-09-09T01:00:41;7.37;;;2.80;;
19080;SDS011;9673;50.868;3.152;2022-09-09T01:03:51;7.03;;;2.37;;
19080;SDS011;9673;50.868;3.152;2022-09-09T01:07:02;14.30;;;2.47;;
19080;SDS011;9673;50.868;3.152;2022-09-09T01:10:21;7.80;;;2.50;;
19080;SDS011;9673;50.868;3.152;2022-09-09T01:13:36;10.93;;;2.90;;
19080;SDS011;9673;50.868;3.152;2022-09-09T01:16:45;8.27;;;2.47;;
19080;SDS011;9673;50.868;3.152;2022-09-09T01:19:59;9.50;;;2.33;;
19080;SDS011;9673;50.868;3.152;2022-09-09T01:23:25;10.20;;;2.70;;
19080;SDS011;9673;50.868;3.152;2022-09-09T01:26:59;8.47;;;2.37;;
19080;SDS011;9673;50.868;3.152;2022-09-09T01:30:09;13.33;;;2.40;;
19080;SDS011;9673;50.868;3.152;2022-09-09T01:33:17;6.80;;;2.57;;
19080;SDS011;9673;50.868;3.152;2022-09-09T01:36:26;6.60;;;2.97;;
19080;SDS011;9673;50.868;3.152;2022-09-09T01:39:40;7.37;;;2.40;;
19080;SDS011;9673;50.868;3.152;2022-09-09T01:42:53;7.90;;;2.07;;
19080;SDS011;9673;50.868;3.152;2022-09-09T01:46:01;13.30;;;2.40;;
19080;SDS011;9673;50.868;3.152;2022-09-09T01:49:08;11.10;;;2.50;;
19080;SDS011;9673;50.868;3.152;2022-09-09T01:52:15;6.43;;;2.20;;
19080;SDS011;9673;50.868;3.152;2022-09-09T01:55:23;10.27;;;2.47;;
19080;SDS011;9673;50.868;3.152;2022-09-09T01:58:43;7.80;;;2.27;;
19080;SDS011;9673;50.868;3.152;2022-09-09T02:02:06;9.73;;;2.40;;
19080;SDS011;9673;50.868;3.152;2022-09-09T02:05:26;8.60;;;2.50;;
19080;SDS011;9673;50.868;3.152;2022-09-09T02:08:45;6.77;;;2.40;;
19080;SDS011;9673;50.868;3.152;2022-09-09T02:11:55;17.10;;;2.53;;
19080;SDS011;9673;50.868;3.152;2022-09-09T02:15:22;10.47;;;2.63;;
19080;SDS011;9673;50.868;3.152;2022-09-09T02:18:37;11.97;;;2.57;;
19080;SDS011;9673;50.868;3.152;2022-09-09T02:21:51;10.50;;;2.47;;
19080;SDS011;9673;50.868;3.152;2022-09-09T02:25:00;11.67;;;2.57;;
19080;SDS011;9673;50.868;3.152;2022-09-09T02:28:07;10.10;;;2.70;;
19080;SDS011;9673;50.868;3.152;2022-09-09T02:31:18;9.40;;;2.63;;
19080;SDS011;9673;50.868;3.152;2022-09-09T02:34:31;16.87;;;2.80;;
19080;SDS011;9673;50.868;3.152;2022-09-09T02:37:45;12.07;;;3.30;;
19080;SDS011;9673;50.868;3.152;2022-09-09T02:40:53;16.20;;;2.60;;
19080;SDS011;9673;50.868;3.152;2022-09-09T02:44:00;15.70;;;3.10;;
19080;SDS011;9673;50.868;3.152;2022-09-09T02:47:13;16.73;;;3.10;;
19080;SDS011;9673;50.868;3.152;2022-09-09T02:50:39;10.00;;;2.93;;
19080;SDS011;9673;50.868;3.152;2022-09-09T02:53:57;19.87;;;3.60;;
19080;SDS011;9673;50.868;3.152;2022-09-09T02:57:12;19.93;;;3.47;;
19080;SDS011;9673;50.868;3.152;2022-09-09T03:00:26;19.80;;;3.10;;
19080;SDS011;9673;50.868;3.152;2022-09-09T03:03:39;12.60;;;2.80;;
19080;SDS011;9673;50.868;3.152;2022-09-09T03:06:50;15.50;;;3.60;;
19080;SDS011;9673;50.868;3.152;2022-09-09T03:09:58;11.23;;;3.10;;
19080;SDS011;9673;50.868;3.152;2022-09-09T03:13:05;12.70;;;3.03;;
19080;SDS011;9673;50.868;3.152;2022-09-09T03:16:16;14.03;;;3.10;;
19080;SDS011;9673;50.868;3.152;2022-09-09T03:19:27;11.03;;;2.63;;
19080;SDS011;9673;50.868;3.152;2022-09-09T03:22:34;13.93;;;2.67;;
19080;SDS011;9673;50.868;3.152;2022-09-09T03:25:45;15.90;;;2.70;;
19080;SDS011;9673;50.868;3.152;2022-09-09T03:28:57;15.10;;;2.80;;
19080;SDS011;9673;50.868;3.152;2022-09-09T03:32:06;22.23;;;3.40;;
19080;SDS011;9673;50.868;3.152;2022-09-09T03:35:17;14.07;;;3.03;;
19080;SDS011;9673;50.868;3.152;2022-09-09T03:38:24;15.13;;;2.67;;
19080;SDS011;9673;50.868;3.152;2022-09-09T03:41:31;17.50;;;3.70;;
19080;SDS011;9673;50.868;3.152;2022-09-09T03:44:39;13.70;;;3.23;;
19080;SDS011;9673;50.868;3.152;2022-09-09T03:47:46;12.87;;;3.03;;
19080;SDS011;9673;50.868;3.152;2022-09-09T03:50:55;19.73;;;2.77;;
19080;SDS011;9673;50.868;3.152;2022-09-09T03:54:06;19.20;;;3.07;;
19080;SDS011;9673;50.868;3.152;2022-09-09T03:57:14;12.93;;;2.97;;
19080;SDS011;9673;50.868;3.152;2022-09-09T04:00:21;25.40;;;2.93;;
19080;SDS011;9673;50.868;3.152;2022-09-09T04:03:29;13.93;;;2.80;;
19080;SDS011;9673;50.868;3.152;2022-09-09T04:06:37;10.93;;;2.90;;
19080;SDS011;9673;50.868;3.152;2022-09-09T04:09:44;13.77;;;2.90;;
19080;SDS011;9673;50.868;3.152;2022-09-09T04:12:51;12.77;;;2.87;;
19080;SDS011;9673;50.868;3.152;2022-09-09T04:15:58;19.37;;;3.27;;
19080;SDS011;9673;50.868;3.152;2022-09-09T04:19:07;13.07;;;3.37;;
19080;SDS011;9673;50.868;3.152;2022-09-09T04:22:14;11.67;;;2.70;;
19080;SDS011;9673;50.868;3.152;2022-09-09T04:25:21;17.13;;;2.70;;
19080;SDS011;9673;50.868;3.152;2022-09-09T04:28:28;10.83;;;3.03;;
19080;SDS011;9673;50.868;3.152;2022-09-09T04:31:37;18.47;;;3.30;;
19080;SDS011;9673;50.868;3.152;2022-09-09T04:34:46;13.17;;;2.90;;
19080;SDS011;9673;50.868;3.152;2022-09-09T04:37:55;15.60;;;2.83;;
19080;SDS011;9673;50.868;3.152;2022-09-09T04:41:01;15.17;;;3.00;;
19080;SDS011;9673;50.868;3.152;2022-09-09T04:44:09;15.70;;;3.70;;
19080;SDS011;9673;50.868;3.152;2022-09-09T04:47:15;17.27;;;2.93;;
19080;SDS011;9673;50.868;3.152;2022-09-09T04:50:22;15.80;;;3.37;;
19080;SDS011;9673;50.868;3.152;2022-09-09T04:53:36;19.97;;;3.43;;
19080;SDS011;9673;50.868;3.152;2022-09-09T04:56:44;19.93;;;3.30;;
19080;SDS011;9673;50.868;3.152;2022-09-09T04:59:51;15.37;;;3.43;;
19080;SDS011;9673;50.868;3.152;2022-09-09T05:02:58;15.20;;;3.27;;
19080;SDS011;9673;50.868;3.152;2022-09-09T05:06:11;19.47;;;3.63;;
19080;SDS011;9673;50.868;3.152;2022-09-09T05:09:20;22.07;;;3.77;;
19080;SDS011;9673;50.868;3.152;2022-09-09T05:12:28;17.27;;;3.23;;
19080;SDS011;9673;50.868;3.152;2022-09-09T05:15:35;19.57;;;3.53;;
19080;SDS011;9673;50.868;3.152;2022-09-09T05:18:42;19.23;;;3.57;;
19080;SDS011;9673;50.868;3.152;2022-09-09T05:21:50;17.43;;;3.93;;
19080;SDS011;9673;50.868;3.152;2022-09-09T05:25:08;20.40;;;3.57;;
19080;SDS011;9673;50.868;3.152;2022-09-09T05:28:14;23.73;;;4.87;;
19080;SDS011;9673;50.868;3.152;2022-09-09T05:31:21;14.27;;;3.50;;
19080;SDS011;9673;50.868;3.152;2022-09-09T05:34:31;18.83;;;4.03;;
19080;SDS011;9673;50.868;3.152;2022-09-09T05:37:37;16.97;;;4.10;;
19080;SDS011;9673;50.868;3.152;2022-09-09T05:40:48;13.33;;;3.40;;
19080;SDS011;9673;50.868;3.152;2022-09-09T05:43:55;17.97;;;3.77;;
19080;SDS011;9673;50.868;3.152;2022-09-09T05:47:04;14.37;;;4.03;;
19080;SDS011;9673;50.868;3.152;2022-09-09T05:50:12;13.93;;;4.40;;
19080;SDS011;9673;50.868;3.152;2022-09-09T05:53:19;19.37;;;3.87;;
19080;SDS011;9673;50.868;3.152;2022-09-09T05:56:27;30.77;;;3.77;;
19080;SDS011;9673;50.868;3.152;2022-09-09T05:59:35;10.90;;;3.50;;
19080;SDS011;9673;50.868;3.152;2022-09-09T06:02:42;13.87;;;3.50;;
19080;SDS011;9673;50.868;3.152;2022-09-09T06:05:56;19.17;;;3.90;;
19080;SDS011;9673;50.868;3.152;2022-09-09T06:09:05;14.13;;;3.33;;
19080;SDS011;9673;50.868;3.152;2022-09-09T06:12:18;23.13;;;4.10;;
19080;SDS011;9673;50.868;3.152;2022-09-09T06:15:25;15.30;;;3.90;;
19080;SDS011;9673;50.868;3.152;2022-09-09T06:18:34;21.97;;;3.90;;
19080;SDS011;9673;50.868;3.152;2022-09-09T06:21:40;15.37;;;3.50;;
19080;SDS011;9673;50.868;3.152;2022-09-09T06:24:49;22.43;;;3.50;;
19080;SDS011;9673;50.868;3.152;2022-09-09T06:27:57;16.97;;;3.73;;
19080;SDS011;9673;50.868;3.152;2022-09-09T06:31:04;14.10;;;3.27;;
19080;SDS011;9673;50.868;3.152;2022-09-09T06:34:11;14.23;;;3.40;;
19080;SDS011;9673;50.868;3.152;2022-09-09T06:37:22;18.90;;;3.50;;
19080;SDS011;9673;50.868;3.152;2022-09-09T06:40:28;13.50;;;3.53;;
19080;SDS011;9673;50.868;3.152;2022-09-09T06:43:36;17.17;;;3.47;;
19080;SDS011;9673;50.868;3.152;2022-09-09T06:46:43;21.00;;;3.80;;
19080;SDS011;9673;50.868;3.152;2022-09-09T06:49:52;23.27;;;3.80;;
19080;SDS011;9673;50.868;3.152;2022-09-09T06:53:00;18.17;;;3.43;;
19080;SDS011;9673;50.868;3.152;2022-09-09T06:56:17;17.93;;;3.67;;
19080;SDS011;9673;50.868;3.152;2022-09-09T06:59:31;17.27;;;3.20;;
19080;SDS011;9673;50.868;3.152;2022-09-09T07:02:38;27.50;;;3.83;;
19080;SDS011;9673;50.868;3.152;2022-09-09T07:05:53;13.50;;;3.77;;
19080;SDS011;9673;50.868;3.152;2022-09-09T07:09:04;20.37;;;3.87;;
19080;SDS011;9673;50.868;3.152;2022-09-09T07:12:14;16.33;;;3.93;;
19080;SDS011;9673;50.868;3.152;2022-09-09T07:15:31;18.63;;;3.83;;
19080;SDS011;9673;50.868;3.152;2022-09-09T07:18:38;14.73;;;3.33;;
19080;SDS011;9673;50.868;3.152;2022-09-09T07:21:45;19.47;;;3.80;;
19080;SDS011;9673;50.868;3.152;2022-09-09T07:24:55;14.43;;;3.50;;
19080;SDS011;9673;50.868;3.152;2022-09-09T07:28:02;14.70;;;3.70;;
19080;SDS011;9673;50.868;3.152;2022-09-09T07:31:13;17.63;;;3.73;;
19080;SDS011;9673;50.868;3.152;2022-09-09T07:34:22;19.27;;;4.03;;
19080;SDS011;9673;50.868;3.152;2022-09-09T07:37:29;16.43;;;4.30;;
19080;SDS011;9673;50.868;3.152;2022-09-09T07:40:35;15.17;;;4.13;;
19080;SDS011;9673;50.868;3.152;2022-09-09T07:43:42;15.07;;;3.93;;
19080;SDS011;9673;50.868;3.152;2022-09-09T07:46:53;11.00;;;3.43;;
19080;SDS011;9673;50.868;3.152;2022-09-09T07:50:05;9.80;;;4.00;;
19080;SDS011;9673;50.868;3.152;2022-09-09T07:53:13;13.87;;;3.80;;
19080;SDS011;9673;50.868;3.152;2022-09-09T07:56:19;15.13;;;3.87;;
19080;SDS011;9673;50.868;3.152;2022-09-09T07:59:27;17.97;;;4.10;;
19080;SDS011;9673;50.868;3.152;2022-09-09T08:02:36;12.23;;;3.57;;
19080;SDS011;9673;50.868;3.152;2022-09-09T08:05:43;15.63;;;4.30;;
19080;SDS011;9673;50.868;3.152;2022-09-09T08:08:49;17.13;;;3.40;;
19080;SDS011;9673;50.868;3.152;2022-09-09T08:11:57;11.80;;;3.60;;
19080;SDS011;9673;50.868;3.152;2022-09-09T08:15:05;12.63;;;3.83;;
19080;SDS011;9673;50.868;3.152;2022-09-09T08:18:14;11.60;;;3.63;;
19080;SDS011;9673;50.868;3.152;2022-09-09T08:21:22;9.07;;;3.10;;
19080;SDS011;9673;50.868;3.152;2022-09-09T08:24:34;9.23;;;2.87;;
19080;SDS011;9673;50.868;3.152;2022-09-09T08:27:41;7.60;;;2.80;;
19080;SDS011;9673;50.868;3.152;2022-09-09T08:30:48;17.87;;;3.17;;
19080;SDS011;9673;50.868;3.152;2022-09-09T08:33:57;8.37;;;2.77;;
19080;SDS011;9673;50.868;3.152;2022-09-09T08:37:05;6.77;;;2.40;;
19080;SDS011;9673;50.868;3.152;2022-09-09T08:40:17;10.47;;;3.13;;
19080;SDS011;9673;50.868;3.152;2022-09-09T08:43:33;11.77;;;2.73;;
19080;SDS011;9673;50.868;3.152;2022-09-09T08:46:43;6.23;;;2.50;;
19080;SDS011;9673;50.868;3.152;2022-09-09T08:50:05;8.53;;;2.43;;
19080;SDS011;9673;50.868;3.152;2022-09-09T08:53:22;9.50;;;2.50;;
19080;SDS011;9673;50.868;3.152;2022-09-09T08:56:35;7.03;;;2.10;;
19080;SDS011;9673;50.868;3.152;2022-09-09T08:59:42;6.60;;;2.50;;
19080;SDS011;9673;50.868;3.152;2022-09-09T09:02:52;3.87;;;1.73;;
19080;SDS011;9673;50.868;3.152;2022-09-09T09:06:17;8.63;;;2.10;;
19080;SDS011;9673;50.868;3.152;2022-09-09T09:09:47;6.30;;;2.40;;
19080;SDS011;9673;50.868;3.152;2022-09-09T09:13:07;5.83;;;1.93;;
19080;SDS011;9673;50.868;3.152;2022-09-09T09:16:23;6.57;;;1.93;;
19080;SDS011;9673;50.868;3.152;2022-09-09T09:19:38;10.17;;;2.30;;
19080;SDS011;9673;50.868;3.152;2022-09-09T09:22:50;4.60;;;2.00;;
19080;SDS011;9673;50.868;3.152;2022-09-09T09:25:58;7.27;;;2.00;;
19080;SDS011;9673;50.868;3.152;2022-09-09T09:29:08;6.43;;;2.03;;
19080;SDS011;9673;50.868;3.152;2022-09-09T09:32:19;6.27;;;1.93;;
19080;SDS011;9673;50.868;3.152;2022-09-09T09:35:28;4.83;;;2.10;;
19080;SDS011;9673;50.868;3.152;2022-09-09T09:38:36;10.63;;;2.73;;
19080;SDS011;9673;50.868;3.152;2022-09-09T09:42:07;6.30;;;1.73;;
19080;SDS011;9673;50.868;3.152;2022-09-09T09:45:26;4.97;;;1.80;;
19080;SDS011;9673;50.868;3.152;2022-09-09T09:48:36;7.40;;;2.10;;
19080;SDS011;9673;50.868;3.152;2022-09-09T09:51:42;4.00;;;1.90;;
19080;SDS011;9673;50.868;3.152;2022-09-09T09:54:51;3.83;;;1.87;;
19080;SDS011;9673;50.868;3.152;2022-09-09T09:58:02;7.23;;;2.00;;
19080;SDS011;9673;50.868;3.152;2022-09-09T10:01:18;1.60;;;1.50;;
19080;SDS011;9673;50.868;3.152;2022-09-09T10:04:29;4.23;;;1.70;;
19080;SDS011;9673;50.868;3.152;2022-09-09T10:07:35;3.43;;;1.60;;
19080;SDS011;9673;50.868;3.152;2022-09-09T10:10:49;3.30;;;1.80;;
19080;SDS011;9673;50.868;3.152;2022-09-09T10:14:11;5.10;;;1.73;;
19080;SDS011;9673;50.868;3.152;2022-09-09T10:17:25;3.27;;;1.57;;
19080;SDS011;9673;50.868;3.152;2022-09-09T10:20:40;6.43;;;1.80;;
19080;SDS011;9673;50.868;3.152;2022-09-09T10:27:38;6.73;;;1.87;;
19080;SDS011;9673;50.868;3.152;2022-09-09T10:31:04;6.47;;;1.40;;
19080;SDS011;9673;50.868;3.152;2022-09-09T10:34:27;6.80;;;1.33;;
19080;SDS011;9673;50.868;3.152;2022-09-09T10:37:57;7.17;;;1.97;;
19080;SDS011;9673;50.868;3.152;2022-09-09T10:41:24;6.33;;;1.43;;
19080;SDS011;9673;50.868;3.152;2022-09-09T10:44:50;3.80;;;1.53;;
19080;SDS011;9673;50.868;3.152;2022-09-09T10:48:16;4.10;;;1.70;;
19080;SDS011;9673;50.868;3.152;2022-09-09T10:51:47;3.97;;;1.20;;
19080;SDS011;9673;50.868;3.152;2022-09-09T10:55:06;1.30;;;0.93;;
19080;SDS011;9673;50.868;3.152;2022-09-09T10:58:20;2.83;;;1.10;;
19080;SDS011;9673;50.868;3.152;2022-09-09T11:01:33;3.33;;;0.97;;
19080;SDS011;9673;50.868;3.152;2022-09-09T11:04:48;4.30;;;1.20;;
19080;SDS011;9673;50.868;3.152;2022-09-09T11:08:00;1.80;;;0.97;;
19080;SDS011;9673;50.868;3.152;2022-09-09T11:11:12;3.60;;;1.10;;
19080;SDS011;9673;50.868;3.152;2022-09-09T11:14:26;2.57;;;1.00;;
19080;SDS011;9673;50.868;3.152;2022-09-09T11:17:44;13.80;;;1.23;;
19080;SDS011;9673;50.868;3.152;2022-09-09T11:20:57;3.50;;;1.03;;
19080;SDS011;9673;50.868;3.152;2022-09-09T11:24:09;2.93;;;1.27;;
19080;SDS011;9673;50.868;3.152;2022-09-09T11:27:21;3.37;;;1.00;;
19080;SDS011;9673;50.868;3.152;2022-09-09T11:30:34;4.13;;;1.13;;
19080;SDS011;9673;50.868;3.152;2022-09-09T11:34:12;3.27;;;1.00;;
19080;SDS011;9673;50.868;3.152;2022-09-09T11:37:38;2.63;;;1.20;;
19080;SDS011;9673;50.868;3.152;2022-09-09T11:41:05;5.50;;;1.27;;
19080;SDS011;9673;50.868;3.152;2022-09-09T11:44:17;6.43;;;1.30;;
19080;SDS011;9673;50.868;3.152;2022-09-09T11:47:27;2.47;;;1.10;;
19080;SDS011;9673;50.868;3.152;2022-09-09T11:50:37;3.93;;;1.37;;
19080;SDS011;9673;50.868;3.152;2022-09-09T11:53:47;4.30;;;1.23;;
19080;SDS011;9673;50.868;3.152;2022-09-09T11:56:56;5.17;;;1.33;;
19080;SDS011;9673;50.868;3.152;2022-09-09T12:00:03;6.27;;;1.50;;
19080;SDS011;9673;50.868;3.152;2022-09-09T12:03:34;7.87;;;1.60;;
19080;SDS011;9673;50.868;3.152;2022-09-09T12:06:50;3.83;;;1.53;;
19080;SDS011;9673;50.868;3.152;2022-09-09T12:10:02;2.63;;;1.53;;
19080;SDS011;9673;50.868;3.152;2022-09-09T12:13:16;4.27;;;1.80;;
19080;SDS011;9673;50.868;3.152;2022-09-09T12:16:28;5.80;;;1.30;;
19080;SDS011;9673;50.868;3.152;2022-09-09T12:19:38;3.13;;;1.30;;
19080;SDS011;9673;50.868;3.152;2022-09-09T12:22:50;4.67;;;1.57;;
19080;SDS011;9673;50.868;3.152;2022-09-09T12:26:30;11.63;;;1.80;;
19080;SDS011;9673;50.868;3.152;2022-09-09T12:29:41;4.87;;;1.67;;
19080;SDS011;9673;50.868;3.152;2022-09-09T12:33:00;4.17;;;1.53;;
19080;SDS011;9673;50.868;3.152;2022-09-09T12:36:09;3.10;;;1.50;;
19080;SDS011;9673;50.868;3.152;2022-09-09T12:39:22;3.97;;;1.40;;
19080;SDS011;9673;50.868;3.152;2022-09-09T12:42:39;3.33;;;1.50;;
19080;SDS011;9673;50.868;3.152;2022-09-09T12:45:45;3.63;;;1.30;;
19080;SDS011;9673;50.868;3.152;2022-09-09T12:48:54;3.20;;;1.67;;
19080;SDS011;9673;50.868;3.152;2022-09-09T12:52:01;5.70;;;1.57;;
19080;SDS011;9673;50.868;3.152;2022-09-09T12:55:16;4.40;;;1.70;;
19080;SDS011;9673;50.868;3.152;2022-09-09T12:58:26;5.70;;;1.87;;
19080;SDS011;9673;50.868;3.152;2022-09-09T13:01:37;8.07;;;2.27;;
19080;SDS011;9673;50.868;3.152;2022-09-09T13:04:43;8.50;;;2.33;;
19080;SDS011;9673;50.868;3.152;2022-09-09T13:07:51;6.93;;;2.17;;
19080;SDS011;9673;50.868;3.152;2022-09-09T13:11:09;9.33;;;2.13;;
19080;SDS011;9673;50.868;3.152;2022-09-09T13:14:21;4.10;;;2.10;;
19080;SDS011;9673;50.868;3.152;2022-09-09T13:17:34;8.07;;;1.80;;
19080;SDS011;9673;50.868;3.152;2022-09-09T13:20:45;4.70;;;1.60;;
19080;SDS011;9673;50.868;3.152;2022-09-09T13:23:53;3.70;;;1.50;;
19080;SDS011;9673;50.868;3.152;2022-09-09T13:27:01;4.43;;;1.50;;
19080;SDS011;9673;50.868;3.152;2022-09-09T13:30:20;5.23;;;1.33;;
19080;SDS011;9673;50.868;3.152;2022-09-09T13:33:30;5.30;;;1.40;;
19080;SDS011;9673;50.868;3.152;2022-09-09T13:36:38;4.70;;;1.20;;
19080;SDS011;9673;50.868;3.152;2022-09-09T13:39:50;4.57;;;1.20;;
19080;SDS011;9673;50.868;3.152;2022-09-09T13:42:59;5.30;;;1.37;;
19080;SDS011;9673;50.868;3.152;2022-09-09T13:46:21;6.13;;;1.37;;
19080;SDS011;9673;50.868;3.152;2022-09-09T13:49:37;2.40;;;1.07;;
19080;SDS011;9673;50.868;3.152;2022-09-09T13:52:43;8.63;;;1.30;;
19080;SDS011;9673;50.868;3.152;2022-09-09T13:55:50;3.23;;;0.93;;
19080;SDS011;9673;50.868;3.152;2022-09-09T13:58:58;3.47;;;1.13;;
19080;SDS011;9673;50.868;3.152;2022-09-09T14:02:05;2.87;;;1.10;;
19080;SDS011;9673;50.868;3.152;2022-09-09T14:05:12;2.83;;;1.20;;
19080;SDS011;9673;50.868;3.152;2022-09-09T14:08:23;2.57;;;1.20;;
19080;SDS011;9673;50.868;3.152;2022-09-09T14:11:32;3.80;;;1.27;;
19080;SDS011;9673;50.868;3.152;2022-09-09T14:14:40;4.43;;;1.10;;
19080;SDS011;9673;50.868;3.152;2022-09-09T14:17:46;1.13;;;1.00;;
19080;SDS011;9673;50.868;3.152;2022-09-09T14:20:53;3.53;;;1.20;;
19080;SDS011;9673;50.868;3.152;2022-09-09T14:23:59;2.90;;;1.13;;
19080;SDS011;9673;50.868;3.152;2022-09-09T14:27:06;2.00;;;1.07;;
19080;SDS011;9673;50.868;3.152;2022-09-09T14:30:14;3.40;;;1.17;;
19080;SDS011;9673;50.868;3.152;2022-09-09T14:33:20;5.27;;;1.40;;
19080;SDS011;9673;50.868;3.152;2022-09-09T14:36:26;5.53;;;1.30;;
19080;SDS011;9673;50.868;3.152;2022-09-09T14:39:33;5.50;;;1.87;;
19080;SDS011;9673;50.868;3.152;2022-09-09T14:42:39;5.40;;;1.40;;
19080;SDS011;9673;50.868;3.152;2022-09-09T14:45:47;3.50;;;1.23;;
19080;SDS011;9673;50.868;3.152;2022-09-09T14:49:01;6.13;;;1.63;;
19080;SDS011;9673;50.868;3.152;2022-09-09T14:52:08;7.17;;;1.90;;
19080;SDS011;9673;50.868;3.152;2022-09-09T14:55:14;6.33;;;1.60;;
19080;SDS011;9673;50.868;3.152;2022-09-09T14:58:21;7.27;;;1.50;;
19080;SDS011;9673;50.868;3.152;2022-09-09T15:01:29;4.93;;;1.00;;
19080;SDS011;9673;50.868;3.152;2022-09-09T15:04:38;3.17;;;1.00;;
19080;SDS011;9673;50.868;3.152;2022-09-09T15:07:44;1.33;;;1.10;;
19080;SDS011;9673;50.868;3.152;2022-09-09T15:10:58;4.40;;;1.50;;
19080;SDS011;9673;50.868;3.152;2022-09-09T15:14:05;2.57;;;1.33;;
19080;SDS011;9673;50.868;3.152;2022-09-09T15:17:15;8.57;;;1.90;;
19080;SDS011;9673;50.868;3.152;2022-09-09T15:20:21;4.60;;;1.50;;
19080;SDS011;9673;50.868;3.152;2022-09-09T15:23:28;5.23;;;1.77;;
19080;SDS011;9673;50.868;3.152;2022-09-09T15:26:37;5.80;;;2.03;;
19080;SDS011;9673;50.868;3.152;2022-09-09T15:29:44;3.70;;;2.37;;
19080;SDS011;9673;50.868;3.152;2022-09-09T15:32:52;4.30;;;2.67;;
19080;SDS011;9673;50.868;3.152;2022-09-09T15:35:59;5.87;;;2.90;;
19080;SDS011;9673;50.868;3.152;2022-09-09T15:39:07;8.10;;;2.83;;
19080;SDS011;9673;50.868;3.152;2022-09-09T15:42:18;5.30;;;2.20;;
19080;SDS011;9673;50.868;3.152;2022-09-09T15:45:24;8.60;;;2.50;;
19080;SDS011;9673;50.868;3.152;2022-09-09T15:48:32;10.07;;;3.47;;
19080;SDS011;9673;50.868;3.152;2022-09-09T15:51:40;3.70;;;2.80;;
19080;SDS011;9673;50.868;3.152;2022-09-09T15:54:48;9.93;;;2.83;;
19080;SDS011;9673;50.868;3.152;2022-09-09T15:57:55;13.27;;;2.87;;
19080;SDS011;9673;50.868;3.152;2022-09-09T16:01:02;8.80;;;2.30;;
19080;SDS011;9673;50.868;3.152;2022-09-09T16:04:11;12.20;;;2.50;;
19080;SDS011;9673;50.868;3.152;2022-09-09T16:07:17;4.53;;;1.80;;
19080;SDS011;9673;50.868;3.152;2022-09-09T16:10:24;7.70;;;1.90;;
19080;SDS011;9673;50.868;3.152;2022-09-09T16:13:32;4.23;;;1.50;;
19080;SDS011;9673;50.868;3.152;2022-09-09T16:16:39;15.43;;;2.17;;
19080;SDS011;9673;50.868;3.152;2022-09-09T16:19:48;10.60;;;1.90;;
19080;SDS011;9673;50.868;3.152;2022-09-09T16:22:54;8.43;;;1.60;;
19080;SDS011;9673;50.868;3.152;2022-09-09T16:26:01;8.20;;;2.30;;
19080;SDS011;9673;50.868;3.152;2022-09-09T16:29:09;7.23;;;2.43;;
19080;SDS011;9673;50.868;3.152;2022-09-09T16:32:16;7.87;;;1.80;;
19080;SDS011;9673;50.868;3.152;2022-09-09T16:35:24;7.43;;;1.90;;
19080;SDS011;9673;50.868;3.152;2022-09-09T16:38:30;5.97;;;1.50;;
19080;SDS011;9673;50.868;3.152;2022-09-09T16:41:37;7.13;;;1.77;;
19080;SDS011;9673;50.868;3.152;2022-09-09T16:44:45;9.33;;;1.60;;
19080;SDS011;9673;50.868;3.152;2022-09-09T16:47:54;10.90;;;1.80;;
19080;SDS011;9673;50.868;3.152;2022-09-09T16:51:03;7.37;;;2.10;;
19080;SDS011;9673;50.868;3.152;2022-09-09T16:54:12;7.53;;;1.97;;
19080;SDS011;9673;50.868;3.152;2022-09-09T16:57:21;10.97;;;2.07;;
19080;SDS011;9673;50.868;3.152;2022-09-09T17:00:28;14.10;;;2.23;;
19080;SDS011;9673;50.868;3.152;2022-09-09T17:03:34;11.57;;;2.07;;
19080;SDS011;9673;50.868;3.152;2022-09-09T17:06:45;10.47;;;2.20;;
19080;SDS011;9673;50.868;3.152;2022-09-09T17:09:53;5.73;;;1.90;;
19080;SDS011;9673;50.868;3.152;2022-09-09T17:12:59;10.70;;;2.00;;
19080;SDS011;9673;50.868;3.152;2022-09-09T17:16:06;9.43;;;2.50;;
19080;SDS011;9673;50.868;3.152;2022-09-09T17:19:13;12.50;;;2.40;;
19080;SDS011;9673;50.868;3.152;2022-09-09T17:22:21;8.97;;;2.20;;
19080;SDS011;9673;50.868;3.152;2022-09-09T17:25:28;9.87;;;2.03;;
19080;SDS011;9673;50.868;3.152;2022-09-09T17:28:34;8.07;;;1.97;;
19080;SDS011;9673;50.868;3.152;2022-09-09T17:31:43;9.97;;;1.80;;
19080;SDS011;9673;50.868;3.152;2022-09-09T17:34:49;9.37;;;1.60;;
19080;SDS011;9673;50.868;3.152;2022-09-09T17:37:58;8.47;;;1.87;;
19080;SDS011;9673;50.868;3.152;2022-09-09T17:41:05;4.23;;;1.50;;
19080;SDS011;9673;50.868;3.152;2022-09-09T17:44:13;7.90;;;1.60;;
19080;SDS011;9673;50.868;3.152;2022-09-09T17:47:19;7.33;;;1.60;;
19080;SDS011;9673;50.868;3.152;2022-09-09T17:50:26;8.17;;;1.87;;
19080;SDS011;9673;50.868;3.152;2022-09-09T17:53:37;13.63;;;1.77;;
19080;SDS011;9673;50.868;3.152;2022-09-09T17:56:44;5.57;;;1.60;;
19080;SDS011;9673;50.868;3.152;2022-09-09T17:59:52;8.40;;;1.70;;
19080;SDS011;9673;50.868;3.152;2022-09-09T18:02:58;9.80;;;1.60;;
19080;SDS011;9673;50.868;3.152;2022-09-09T18:06:06;13.03;;;1.80;;
19080;SDS011;9673;50.868;3.152;2022-09-09T18:09:19;10.93;;;1.90;;
19080;SDS011;9673;50.868;3.152;2022-09-09T18:12:27;9.23;;;1.90;;
19080;SDS011;9673;50.868;3.152;2022-09-09T18:15:35;9.67;;;1.80;;
19080;SDS011;9673;50.868;3.152;2022-09-09T18:18:53;12.23;;;2.07;;
19080;SDS011;9673;50.868;3.152;2022-09-09T18:22:02;11.87;;;1.73;;
19080;SDS011;9673;50.868;3.152;2022-09-09T18:25:11;9.97;;;1.80;;
19080;SDS011;9673;50.868;3.152;2022-09-09T18:28:17;15.23;;;2.20;;
19080;SDS011;9673;50.868;3.152;2022-09-09T18:31:28;5.30;;;2.10;;
19080;SDS011;9673;50.868;3.152;2022-09-09T18:34:35;6.30;;;1.97;;
19080;SDS011;9673;50.868;3.152;2022-09-09T18:37:41;10.30;;;1.90;;
19080;SDS011;9673;50.868;3.152;2022-09-09T18:40:48;7.33;;;2.00;;
19080;SDS011;9673;50.868;3.152;2022-09-09T18:43:56;11.97;;;2.07;;
19080;SDS011;9673;50.868;3.152;2022-09-09T18:47:04;12.53;;;2.20;;
19080;SDS011;9673;50.868;3.152;2022-09-09T18:50:11;9.30;;;1.90;;
19080;SDS011;9673;50.868;3.152;2022-09-09T18:53:17;9.20;;;2.00;;
19080;SDS011;9673;50.868;3.152;2022-09-09T18:56:28;18.63;;;2.23;;
19080;SDS011;9673;50.868;3.152;2022-09-09T18:59:35;11.07;;;2.00;;
19080;SDS011;9673;50.868;3.152;2022-09-09T19:02:41;11.33;;;1.90;;
19080;SDS011;9673;50.868;3.152;2022-09-09T19:05:48;14.27;;;2.33;;
19080;SDS011;9673;50.868;3.152;2022-09-09T19:08:55;13.10;;;2.30;;
19080;SDS011;9673;50.868;3.152;2022-09-09T19:12:08;12.27;;;2.03;;
19080;SDS011;9673;50.868;3.152;2022-09-09T19:15:15;12.90;;;1.93;;
19080;SDS011;9673;50.868;3.152;2022-09-09T19:18:21;12.07;;;2.00;;
19080;SDS011;9673;50.868;3.152;2022-09-09T19:21:28;10.70;;;2.17;;
19080;SDS011;9673;50.868;3.152;2022-09-09T19:24:36;8.87;;;2.30;;